Time;durP1;ratioP1;P1;durP2;ratioP2;P2;SDS_P1;SDS_P2;PMS_P1;PMS_P2;Temp;Humidity;BMP_temperature;BMP_pressure;BME280_temperature;BME280_humidity;BME280_pressure;Samples;Min_cycle;Max_cycle;Signal;HPM_P1;HPM_P2
2023/05/18 00:00:36;;;;;;;13.98;7.05;;;6.90;99.90;;;;;;6275533;28;20048;-81
2023/05/18 00:03:38;;;;;;;7.13;6.43;;;6.80;99.90;;;;;;6273943;28;20052;-81
2023/05/18 00:06:40;;;;;;;8.02;6.43;;;6.80;99.90;;;;;;6273832;28;20045;-82
2023/05/18 00:09:41;;;;;;;15.10;10.88;;;6.80;99.90;;;;;;6273432;28;20400;-81
2023/05/18 00:12:43;;;;;;;13.13;6.70;;;6.60;99.90;;;;;;6274621;28;20518;-80
2023/05/18 00:15:46;;;;;;;6.65;5.95;;;6.60;99.90;;;;;;6273743;28;20522;-80
2023/05/18 00:18:48;;;;;;;8.85;7.05;;;6.50;99.90;;;;;;6274086;28;20049;-80
2023/05/18 00:21:51;;;;;;;9.10;6.53;;;6.50;99.90;;;;;;6273552;28;20041;-81
2023/05/18 00:24:53;;;;;;;9.60;8.10;;;6.50;99.90;;;;;;6273464;28;20049;-81
2023/05/18 00:27:55;;;;;;;10.60;6.70;;;6.50;99.90;;;;;;6273535;28;20045;-81
2023/05/18 00:30:59;;;;;;;10.10;7.25;;;6.40;99.90;;;;;;6273830;28;20057;-81
2023/05/18 00:34:00;;;;;;;9.20;7.82;;;6.30;99.90;;;;;;6273508;28;20432;-80
2023/05/18 00:37:02;;;;;;;11.32;8.30;;;6.30;99.90;;;;;;6274112;28;20419;-81
2023/05/18 00:40:05;;;;;;;11.55;7.20;;;6.20;99.90;;;;;;6274679;28;20128;-80
2023/05/18 00:43:07;;;;;;;7.95;6.38;;;6.20;99.90;;;;;;6274037;28;20415;-80
2023/05/18 00:46:10;;;;;;;11.70;7.53;;;6.20;99.90;;;;;;6274322;28;20045;-80
2023/05/18 00:49:12;;;;;;;11.38;8.50;;;6.10;99.90;;;;;;6278653;28;20045;-81
2023/05/18 00:52:15;;;;;;;13.00;7.78;;;6.10;99.90;;;;;;6279784;28;20056;-81
2023/05/18 00:55:16;;;;;;;8.95;7.20;;;6.10;99.90;;;;;;6278291;28;20060;-81
2023/05/18 00:58:18;;;;;;;8.30;6.00;;;6.00;99.90;;;;;;6278038;28;20418;-81
2023/05/18 01:01:26;;;;;;;10.20;7.70;;;6.00;99.90;;;;;;6278478;28;20044;-81
2023/05/18 01:04:30;;;;;;;10.95;8.98;;;6.00;99.90;;;;;;6278713;28;20049;-81
2023/05/18 01:07:33;;;;;;;11.00;8.77;;;6.00;99.90;;;;;;6278011;28;20041;-81
2023/05/18 01:10:37;;;;;;;12.60;7.25;;;5.90;99.90;;;;;;6277997;28;20044;-81
2023/05/18 01:13:49;;;;;;;9.52;7.53;;;5.90;99.90;;;;;;6277791;28;20048;-80
2023/05/18 01:17:01;;;;;;;10.20;7.15;;;5.90;99.90;;;;;;6277651;28;20499;-80
2023/05/18 01:20:32;;;;;;;13.55;9.05;;;5.80;99.90;;;;;;6277729;28;20483;-81
2023/05/18 01:23:59;;;;;;;12.43;7.07;;;5.80;99.90;;;;;;6276576;28;20178;-79
2023/05/18 01:27:06;;;;;;;10.65;8.18;;;5.70;99.90;;;;;;6276653;28;20071;-80
2023/05/18 01:30:09;;;;;;;9.73;8.18;;;5.70;99.90;;;;;;6276732;28;20049;-81
2023/05/18 01:33:12;;;;;;;14.38;8.57;;;5.60;99.90;;;;;;6277227;28;20049;-80
2023/05/18 01:36:14;;;;;;;12.20;7.47;;;5.60;99.90;;;;;;6277638;28;20500;-81
2023/05/18 01:39:16;;;;;;;10.88;8.05;;;5.60;99.90;;;;;;6276883;28;20458;-81
2023/05/18 01:42:24;;;;;;;11.40;8.55;;;5.60;99.90;;;;;;6277941;28;20045;-81
2023/05/18 01:45:28;;;;;;;9.30;7.50;;;5.60;99.90;;;;;;6276419;28;20442;-81
2023/05/18 01:48:34;;;;;;;9.60;6.72;;;5.50;99.90;;;;;;6275855;28;20053;-81
2023/05/18 01:51:41;;;;;;;14.18;7.47;;;5.50;99.90;;;;;;6275808;28;20048;-81
2023/05/18 01:54:45;;;;;;;9.02;7.60;;;5.50;99.90;;;;;;6276230;28;20044;-80
2023/05/18 01:57:52;;;;;;;8.85;7.65;;;5.50;99.90;;;;;;6274615;28;20075;-80
2023/05/18 02:00:54;;;;;;;8.68;7.63;;;5.50;99.90;;;;;;6276540;28;20057;-81
2023/05/18 02:03:56;;;;;;;12.00;7.47;;;5.40;99.90;;;;;;6275907;28;20745;-79
2023/05/18 02:06:57;;;;;;;12.05;8.10;;;5.40;99.90;;;;;;6277095;28;20499;-80
2023/05/18 02:09:59;;;;;;;11.85;8.07;;;5.40;99.90;;;;;;6279017;28;20419;-82
2023/05/18 02:13:02;;;;;;;16.33;7.95;;;5.30;99.90;;;;;;6280033;28;20048;-82
2023/05/18 02:16:04;;;;;;;8.32;6.40;;;5.30;99.90;;;;;;6280515;28;20053;-82
2023/05/18 02:19:06;;;;;;;11.75;7.88;;;5.30;99.90;;;;;;6278759;28;20045;-82
2023/05/18 02:22:07;;;;;;;15.68;8.55;;;5.30;99.90;;;;;;6280221;28;20052;-82
2023/05/18 02:25:10;;;;;;;12.57;8.23;;;5.20;99.90;;;;;;6280268;28;20055;-82
2023/05/18 02:28:13;;;;;;;11.50;6.63;;;5.20;99.90;;;;;;6279675;28;20045;-82
2023/05/18 02:31:14;;;;;;;11.35;7.68;;;5.20;99.90;;;;;;6279542;28;20052;-82
2023/05/18 02:34:17;;;;;;;8.35;7.25;;;5.10;99.90;;;;;;6279146;28;20064;-83
2023/05/18 02:37:18;;;;;;;13.65;7.53;;;5.10;99.90;;;;;;6279513;28;20049;-83
2023/05/18 02:40:21;;;;;;;8.73;7.00;;;5.10;99.90;;;;;;6279235;28;20492;-81
2023/05/18 02:43:24;;;;;;;7.22;6.13;;;5.00;99.90;;;;;;6279782;28;20549;-82
2023/05/18 02:46:25;;;;;;;10.10;7.85;;;5.00;99.90;;;;;;6279087;28;20037;-81
2023/05/18 02:49:27;;;;;;;9.43;5.97;;;5.00;99.90;;;;;;6278739;28;20045;-82
2023/05/18 02:52:29;;;;;;;13.43;6.32;;;5.10;99.90;;;;;;6279720;28;20053;-81
2023/05/18 02:55:31;;;;;;;6.20;5.03;;;5.20;99.90;;;;;;6278647;28;20056;-81
2023/05/18 02:58:34;;;;;;;11.13;7.25;;;5.20;99.90;;;;;;6277563;28;20063;-82
2023/05/18 03:01:38;;;;;;;12.52;7.10;;;5.30;99.90;;;;;;6278562;28;20132;-82
2023/05/18 03:04:40;;;;;;;11.65;8.18;;;5.40;99.90;;;;;;6278827;28;20053;-82
2023/05/18 03:07:49;;;;;;;14.27;9.45;;;5.50;99.90;;;;;;6276907;28;20120;-82
2023/05/18 03:10:51;;;;;;;18.27;6.80;;;5.60;99.90;;;;;;6277122;28;20202;-81
2023/05/18 03:13:54;;;;;;;7.55;6.20;;;5.60;99.90;;;;;;6277300;28;20049;-82
2023/05/18 03:16:56;;;;;;;7.20;5.68;;;5.70;99.90;;;;;;6278408;28;20059;-82
2023/05/18 03:19:58;;;;;;;6.85;4.93;;;5.70;99.90;;;;;;6278128;28;20143;-82
2023/05/18 03:22:59;;;;;;;7.30;5.28;;;5.70;99.90;;;;;;6277499;28;20052;-81
2023/05/18 03:26:02;;;;;;;6.20;5.50;;;5.70;99.90;;;;;;6278443;28;20048;-82
2023/05/18 03:29:05;;;;;;;12.98;6.72;;;5.70;99.90;;;;;;6278159;28;20715;-82
2023/05/18 03:32:07;;;;;;;7.97;5.45;;;5.70;99.90;;;;;;6281208;28;20052;-82
2023/05/18 03:35:11;;;;;;;13.88;8.40;;;5.60;99.90;;;;;;6283441;28;20423;-82
2023/05/18 03:38:13;;;;;;;7.88;5.22;;;5.70;99.90;;;;;;6292815;28;20041;-81
2023/05/18 03:41:14;;;;;;;11.55;5.07;;;5.60;99.90;;;;;;6293200;28;20216;-83
2023/05/18 03:44:18;;;;;;;9.45;6.03;;;5.60;99.90;;;;;;6286426;28;20053;-81
2023/05/18 03:47:20;;;;;;;9.27;6.13;;;5.60;99.90;;;;;;6284834;28;20024;-81
2023/05/18 03:50:22;;;;;;;8.85;5.35;;;5.70;99.90;;;;;;6283220;28;20426;-83
2023/05/18 03:53:25;;;;;;;12.23;5.30;;;5.70;99.90;;;;;;6282896;28;20053;-83
2023/05/18 03:56:29;;;;;;;13.50;6.13;;;5.70;99.90;;;;;;6283418;28;20116;-82
2023/05/18 03:59:32;;;;;;;10.93;6.90;;;5.80;99.90;;;;;;6283090;28;20052;-83
2023/05/18 04:02:35;;;;;;;6.60;5.88;;;5.80;99.90;;;;;;6282833;28;20045;-81
2023/05/18 04:05:36;;;;;;;9.95;5.82;;;5.80;99.90;;;;;;6283595;28;20099;-81
2023/05/18 04:08:39;;;;;;;8.70;5.88;;;5.90;99.90;;;;;;6283547;28;20045;-82
2023/05/18 04:11:41;;;;;;;6.28;4.95;;;5.90;99.90;;;;;;6282214;28;20104;-82
2023/05/18 04:14:48;;;;;;;8.40;4.95;;;6.00;99.90;;;;;;6280606;28;20514;-82
2023/05/18 04:17:52;;;;;;;13.20;6.03;;;6.10;99.90;;;;;;6281528;28;20075;-82
2023/05/18 04:20:55;;;;;;;11.73;5.60;;;6.10;99.90;;;;;;6282977;28;20055;-82
2023/05/18 04:23:58;;;;;;;8.57;5.60;;;6.20;99.90;;;;;;6290729;28;20045;-82
2023/05/18 04:27:00;;;;;;;5.95;4.97;;;6.30;99.90;;;;;;6289563;28;20179;-82
2023/05/18 04:30:04;;;;;;;9.90;5.60;;;6.40;99.90;;;;;;6289298;28;20521;-82
2023/05/18 04:33:07;;;;;;;6.45;4.43;;;6.60;99.90;;;;;;6288791;28;20423;-82
2023/05/18 04:36:09;;;;;;;10.32;6.35;;;6.80;99.90;;;;;;6290525;28;20055;-82
2023/05/18 04:39:11;;;;;;;9.05;4.93;;;7.00;99.90;;;;;;6289625;28;20059;-82
2023/05/18 04:42:13;;;;;;;6.80;4.93;;;7.20;99.90;;;;;;6289291;28;20049;-82
2023/05/18 04:45:18;;;;;;;10.15;4.40;;;7.40;99.90;;;;;;6288685;28;20128;-82
2023/05/18 04:48:19;;;;;;;11.23;5.35;;;7.60;99.90;;;;;;6288942;28;20533;-82
2023/05/18 04:51:21;;;;;;;6.68;4.35;;;7.90;99.90;;;;;;6288356;28;20048;-82
2023/05/18 04:54:23;;;;;;;8.68;5.25;;;8.00;99.90;;;;;;6287907;28;20044;-82
2023/05/18 05:00:42;;;;;;;5.53;3.78;;;8.40;99.90;;;;;;6285172;28;20057;-83
2023/05/18 05:03:44;;;;;;;19.15;7.10;;;8.60;99.90;;;;;;6268497;28;20053;-83
2023/05/18 05:06:46;;;;;;;10.90;5.18;;;8.90;99.90;;;;;;6288809;28;20106;-83
2023/05/18 05:09:48;;;;;;;7.97;3.97;;;9.20;99.90;;;;;;6314236;28;20052;-81
2023/05/18 05:12:50;;;;;;;5.93;3.78;;;9.40;99.90;;;;;;6317431;28;20156;-82
2023/05/18 05:15:53;;;;;;;7.85;3.83;;;9.80;99.90;;;;;;6315181;28;20049;-83
2023/05/18 05:18:55;;;;;;;9.60;3.65;;;10.40;99.90;;;;;;6314533;28;20041;-84
2023/05/18 05:21:57;;;;;;;10.90;3.35;;;11.10;99.90;;;;;;6315543;28;20052;-83
2023/05/18 05:24:58;;;;;;;8.70;3.42;;;11.80;99.90;;;;;;6313846;28;20049;-82
2023/05/18 05:28:00;;;;;;;7.47;3.30;;;12.60;99.90;;;;;;6315175;28;20045;-81
2023/05/18 05:31:03;;;;;;;7.78;4.15;;;13.20;99.90;;;;;;6314524;28;20133;-81
2023/05/18 05:34:05;;;;;;;13.82;4.55;;;13.90;99.90;;;;;;6311641;28;20045;-83
2023/05/18 05:37:07;;;;;;;8.32;2.90;;;14.40;99.90;;;;;;6310455;28;20406;-83
2023/05/18 05:40:10;;;;;;;8.75;3.35;;;14.70;99.90;;;;;;6310938;28;20132;-80
2023/05/18 05:43:12;;;;;;;14.13;3.58;;;14.80;99.60;;;;;;6309148;28;20625;-81
2023/05/18 05:46:15;;;;;;;11.10;2.85;;;14.80;98.90;;;;;;6310823;28;20054;-81
2023/05/18 05:49:17;;;;;;;7.00;2.67;;;14.70;98.30;;;;;;6312050;28;20052;-82
2023/05/18 05:52:18;;;;;;;4.78;2.63;;;14.60;97.70;;;;;;6312585;28;20045;-84
2023/05/18 05:55:21;;;;;;;5.70;2.88;;;14.50;96.60;;;;;;6312147;28;20051;-79
2023/05/18 05:58:23;;;;;;;6.45;2.72;;;14.30;96.30;;;;;;6311460;28;20470;-83
2023/05/18 06:01:26;;;;;;;4.50;2.53;;;14.40;96.20;;;;;;6311491;28;20068;-82
2023/05/18 06:04:28;;;;;;;6.45;3.28;;;14.50;95.30;;;;;;6292540;28;20056;-82
2023/05/18 06:07:34;;;;;;;10.50;3.45;;;14.60;94.70;;;;;;6286812;28;20047;-82
2023/05/18 06:10:37;;;;;;;5.13;2.97;;;14.70;94.00;;;;;;6287289;28;20073;-82
2023/05/18 06:13:39;;;;;;;7.22;2.58;;;14.60;93.70;;;;;;6286327;28;20041;-82
2023/05/18 06:16:42;;;;;;;6.43;3.50;;;14.60;93.00;;;;;;6286700;28;20053;-81
2023/05/18 06:19:44;;;;;;;7.45;3.42;;;14.60;93.30;;;;;;6284060;28;20044;-80
2023/05/18 06:22:46;;;;;;;9.15;2.90;;;14.80;92.70;;;;;;6286643;28;20055;-81
2023/05/18 06:25:48;;;;;;;13.32;2.85;;;14.90;93.10;;;;;;6283775;28;20056;-81
2023/05/18 06:28:53;;;;;;;5.78;2.67;;;15.30;92.80;;;;;;6284509;28;20041;-82
2023/05/18 06:31:57;;;;;;;7.90;3.05;;;16.00;92.40;;;;;;6286225;28;20073;-81
2023/05/18 06:34:58;;;;;;;7.53;2.63;;;17.00;91.50;;;;;;6271689;28;20045;-80
2023/05/18 06:38:00;;;;;;;8.27;2.08;;;17.70;88.90;;;;;;6260122;28;20088;-81
2023/05/18 06:41:04;;;;;;;10.48;2.47;;;18.40;85.30;;;;;;6261649;28;20057;-79
2023/05/18 06:44:05;;;;;;;6.25;2.40;;;18.90;82.60;;;;;;6286247;28;20059;-81
2023/05/18 06:47:09;;;;;;;7.45;4.05;;;19.60;80.10;;;;;;6267915;28;20049;-78
2023/05/18 06:50:11;;;;;;;8.00;2.70;;;20.10;77.10;;;;;;6269691;28;20041;-81
2023/05/18 06:53:13;;;;;;;6.40;2.88;;;20.40;73.60;;;;;;6282077;28;20053;-81
2023/05/18 06:56:15;;;;;;;5.22;2.15;;;20.70;71.90;;;;;;6260156;28;20053;-82
2023/05/18 06:59:17;;;;;;;5.90;2.78;;;21.00;70.00;;;;;;6277856;28;20105;-80
2023/05/18 07:02:20;;;;;;;11.07;2.78;;;21.20;67.40;;;;;;6271739;28;20064;-79
2023/05/18 07:05:22;;;;;;;9.68;2.67;;;21.30;65.30;;;;;;6240049;28;20053;-80
2023/05/18 07:08:24;;;;;;;5.75;2.63;;;21.10;64.50;;;;;;6279681;28;20051;-77
2023/05/18 07:11:26;;;;;;;5.20;2.33;;;21.10;64.30;;;;;;6286599;28;20048;-80
2023/05/18 07:14:28;;;;;;;6.40;3.05;;;21.40;62.80;;;;;;6283027;28;20564;-83
2023/05/18 07:17:31;;;;;;;21.33;15.20;;;21.30;61.90;;;;;;6264570;28;20141;-81
2023/05/18 07:20:33;;;;;;;6.82;2.63;;;21.30;60.90;;;;;;6262706;28;20060;-84
2023/05/18 07:31:06;;;;;;;10.35;3.05;;;21.10;59.50;;;;;;6128643;28;20589;-82
2023/05/18 07:34:09;;;;;;;7.88;3.10;;;21.20;59.70;;;;;;6229943;28;20037;-81
2023/05/18 07:37:15;;;;;;;9.43;2.40;;;21.50;60.10;;;;;;6272872;28;20128;-83
2023/05/18 07:40:17;;;;;;;9.07;2.55;;;21.90;59.20;;;;;;6272780;28;20064;-82
2023/05/18 07:43:53;;;;;;;6.07;2.88;;;22.20;58.30;;;;;;6278655;28;20049;-80
2023/05/18 07:47:15;;;;;;;6.32;2.60;;;22.40;56.80;;;;;;6266337;28;20108;-80
2023/05/18 07:50:18;;;;;;;6.45;2.35;;;22.10;56.40;;;;;;6272007;28;20547;-82
2023/05/18 07:53:20;;;;;;;6.32;2.05;;;21.50;56.70;;;;;;6269949;28;20049;-80
2023/05/18 07:56:22;;;;;;;5.18;2.53;;;20.60;57.60;;;;;;6271115;28;20506;-81
2023/05/18 07:59:24;;;;;;;10.45;2.50;;;19.70;58.00;;;;;;6269337;28;20037;-81
2023/05/18 08:02:26;;;;;;;9.80;3.85;;;18.90;59.50;;;;;;6270406;28;20060;-81
2023/05/18 08:05:29;;;;;;;11.57;4.30;;;18.50;60.50;;;;;;6270984;28;20051;-81
2023/05/18 08:08:31;;;;;;;11.73;4.57;;;18.00;61.20;;;;;;6273350;28;20171;-81
2023/05/18 08:11:33;;;;;;;8.20;2.88;;;17.70;61.80;;;;;;6269880;28;20053;-81
2023/05/18 08:14:35;;;;;;;9.48;2.72;;;17.60;62.60;;;;;;6269014;28;20041;-81
2023/05/18 08:17:36;;;;;;;8.35;2.60;;;17.60;63.40;;;;;;6270688;28;20232;-82
2023/05/18 08:20:39;;;;;;;6.65;2.90;;;17.70;63.70;;;;;;6272119;28;20053;-83
2023/05/18 08:23:41;;;;;;;7.78;2.65;;;17.70;64.00;;;;;;6271084;28;20843;-82
2023/05/18 08:26:43;;;;;;;7.55;2.92;;;17.60;64.00;;;;;;6271480;28;20441;-82
2023/05/18 08:29:45;;;;;;;6.43;3.08;;;17.20;64.30;;;;;;6269256;28;20048;-80
2023/05/18 08:32:47;;;;;;;8.05;3.15;;;17.10;65.10;;;;;;6268824;28;20055;-79
2023/05/18 08:35:50;;;;;;;10.93;3.05;;;17.20;65.80;;;;;;6265854;28;20191;-80
2023/05/18 08:38:52;;;;;;;7.78;2.60;;;17.80;66.30;;;;;;6266850;28;20032;-82
2023/05/18 08:42:02;;;;;;;11.45;3.42;;;18.80;66.00;;;;;;6268115;28;20052;-85
2023/05/18 08:45:12;;;;;;;7.45;3.15;;;20.00;64.90;;;;;;6269038;28;20117;-81
2023/05/18 08:48:19;;;;;;;6.75;2.58;;;20.80;62.60;;;;;;6265201;28;20045;-82
2023/05/18 08:51:23;;;;;;;7.07;2.70;;;21.00;61.80;;;;;;6266555;28;20675;-81
2023/05/18 08:54:30;;;;;;;8.32;3.85;;;21.30;60.60;;;;;;6270256;28;20085;-83
2023/05/18 08:57:35;;;;;;;9.07;2.97;;;21.60;60.20;;;;;;6265016;28;20052;-85
2023/05/18 09:00:52;;;;;;;7.45;2.83;;;22.20;59.50;;;;;;6272425;28;20045;-82
2023/05/18 09:03:55;;;;;;;8.55;3.20;;;22.60;58.90;;;;;;6266447;28;20049;-83
2023/05/18 09:07:01;;;;;;;8.30;3.10;;;23.10;57.80;;;;;;6269405;28;20109;-83
2023/05/18 09:10:03;;;;;;;12.13;3.70;;;23.20;56.70;;;;;;6270280;28;20060;-78
2023/05/18 09:13:07;;;;;;;7.05;3.00;;;23.00;56.00;;;;;;6274770;28;20054;-84
2023/05/18 09:16:09;;;;;;;11.40;4.20;;;22.70;56.10;;;;;;6275841;28;20045;-83
2023/05/18 09:19:10;;;;;;;15.55;4.40;;;22.60;55.60;;;;;;6273145;28;20045;-84
2023/05/18 09:22:14;;;;;;;8.55;2.80;;;22.40;55.70;;;;;;6273752;28;20054;-85
2023/05/18 09:25:17;;;;;;;9.20;2.97;;;22.60;55.90;;;;;;6274503;28;20499;-83
2023/05/18 09:28:26;;;;;;;17.80;3.80;;;22.90;55.50;;;;;;6273422;28;20064;-84
2023/05/18 09:31:30;;;;;;;6.32;3.40;;;22.40;54.90;;;;;;6271893;28;20038;-80
2023/05/18 09:34:39;;;;;;;9.80;3.03;;;22.10;55.10;;;;;;6278996;28;20202;-83
2023/05/18 09:37:43;;;;;;;6.38;3.33;;;22.10;55.50;;;;;;6273605;28;20048;-83
2023/05/18 09:40:47;;;;;;;6.13;3.20;;;22.20;55.60;;;;;;6276611;28;20053;-84
2023/05/18 09:43:50;;;;;;;7.05;3.78;;;22.60;55.80;;;;;;6273928;28;20128;-81
2023/05/18 09:46:55;;;;;;;7.13;3.97;;;22.70;54.70;;;;;;6275691;28;20041;-80
2023/05/18 09:49:57;;;;;;;8.32;3.15;;;22.70;54.60;;;;;;6271903;28;20066;-79
2023/05/18 09:53:00;;;;;;;11.32;4.45;;;22.80;54.70;;;;;;6268299;28;20061;-81
2023/05/18 09:56:05;;;;;;;10.90;3.88;;;23.30;54.00;;;;;;6269786;28;20056;-83
2023/05/18 09:59:10;;;;;;;5.57;3.05;;;23.40;53.00;;;;;;6272591;28;20037;-80
2023/05/18 10:02:14;;;;;;;4.95;2.83;;;23.10;53.00;;;;;;6273391;28;20146;-85
2023/05/18 10:05:20;;;;;;;6.85;3.28;;;23.00;53.40;;;;;;6271838;28;20071;-81
2023/05/18 10:08:23;;;;;;;6.57;2.72;;;22.90;53.60;;;;;;6271437;28;20045;-82
2023/05/18 10:11:26;;;;;;;7.93;3.50;;;22.70;52.70;;;;;;6271677;28;20111;-81
2023/05/18 10:14:35;;;;;;;9.15;4.28;;;22.60;52.90;;;;;;6271479;28;20122;-83
2023/05/18 10:17:38;;;;;;;7.72;2.95;;;22.30;52.80;;;;;;6269452;28;20138;-81
2023/05/18 10:20:40;;;;;;;6.80;2.80;;;21.60;53.10;;;;;;6269779;28;20052;-81
2023/05/18 10:23:47;;;;;;;8.73;3.42;;;21.10;54.20;;;;;;6272373;28;20041;-82
2023/05/18 10:26:50;;;;;;;8.13;3.80;;;21.10;54.20;;;;;;6270829;28;20045;-82
2023/05/18 10:29:53;;;;;;;9.20;4.18;;;20.90;54.10;;;;;;6273024;28;20063;-81
2023/05/18 10:32:57;;;;;;;5.28;3.00;;;20.70;54.80;;;;;;6274666;28;20053;-82
2023/05/18 10:36:02;;;;;;;6.25;3.40;;;21.10;54.40;;;;;;6273197;28;20053;-82
2023/05/18 10:39:06;;;;;;;8.68;5.93;;;21.00;54.20;;;;;;6271496;28;20049;-81
2023/05/18 10:42:10;;;;;;;9.23;6.60;;;21.00;54.60;;;;;;6272825;28;20041;-82
2023/05/18 10:45:11;;;;;;;10.65;4.20;;;21.30;54.90;;;;;;6275358;28;20041;-83
2023/05/18 10:48:14;;;;;;;12.52;4.03;;;21.70;54.70;;;;;;6270639;28;20040;-81
2023/05/18 10:51:18;;;;;;;10.15;3.65;;;22.00;53.80;;;;;;6267830;28;20049;-83
2023/05/18 10:54:22;;;;;;;8.60;3.45;;;21.70;53.00;;;;;;6265729;28;20049;-83
2023/05/18 10:57:26;;;;;;;10.60;3.03;;;21.20;53.60;;;;;;6267766;28;20522;-81
2023/05/18 11:00:28;;;;;;;7.35;3.13;;;21.10;53.70;;;;;;6270463;28;20414;-79
2023/05/18 11:03:32;;;;;;;10.07;3.03;;;21.50;54.20;;;;;;6269579;28;20483;-81
2023/05/18 11:06:34;;;;;;;9.07;4.05;;;22.30;52.80;;;;;;6262978;28;20045;-81
2023/05/18 11:09:41;;;;;;;5.60;3.25;;;22.30;51.40;;;;;;6265626;28;20066;-79
2023/05/18 11:12:43;;;;;;;7.97;3.00;;;21.70;51.90;;;;;;6268076;28;20408;-81
2023/05/18 11:16:07;;;;;;;5.80;3.13;;;21.70;52.20;;;;;;6267259;28;20048;-82
2023/05/18 11:19:10;;;;;;;12.70;2.88;;;21.60;51.90;;;;;;6269109;28;20048;-83
2023/05/18 11:22:21;;;;;;;6.03;2.67;;;21.70;52.40;;;;;;6265583;28;20060;-82
2023/05/18 11:25:43;;;;;;;11.00;3.17;;;22.10;52.10;;;;;;6265866;28;20091;-83
2023/05/18 11:28:46;;;;;;;10.20;3.22;;;22.30;52.00;;;;;;6270126;28;20159;-83
2023/05/18 11:31:50;;;;;;;8.07;3.28;;;22.40;51.40;;;;;;6271528;28;20096;-80
2023/05/18 11:34:53;;;;;;;9.50;2.95;;;22.40;51.20;;;;;;6271699;28;20048;-82
2023/05/18 11:38:07;;;;;;;5.68;2.60;;;22.90;51.70;;;;;;6269938;28;20411;-79
2023/05/18 11:41:27;;;;;;;12.02;3.70;;;23.50;50.70;;;;;;6268514;28;20053;-80
2023/05/18 11:44:30;;;;;;;8.85;3.33;;;23.20;49.60;;;;;;6270389;28;20344;-82
2023/05/18 11:47:32;;;;;;;8.85;2.72;;;22.40;50.20;;;;;;6269189;28;20411;-84
2023/05/18 11:50:34;;;;;;;6.15;2.63;;;22.10;50.50;;;;;;6270527;28;20071;-82
2023/05/18 11:53:37;;;;;;;9.15;3.53;;;21.80;51.40;;;;;;6268306;28;20181;-81
2023/05/18 11:56:41;;;;;;;9.73;3.13;;;22.20;51.10;;;;;;6269555;28;20059;-81
2023/05/18 11:59:44;;;;;;;6.70;2.40;;;22.10;50.40;;;;;;6267606;28;20511;-83
2023/05/18 12:02:47;;;;;;;9.30;2.50;;;21.80;50.30;;;;;;6270233;28;20049;-82
2023/05/18 12:05:50;;;;;;;5.40;2.28;;;21.60;51.00;;;;;;6268266;28;20167;-81
2023/05/18 12:08:52;;;;;;;7.78;2.58;;;22.10;51.50;;;;;;6264283;28;20049;-81
2023/05/18 12:11:56;;;;;;;5.40;2.85;;;22.30;50.50;;;;;;6269490;28;20055;-83
2023/05/18 12:14:59;;;;;;;5.30;2.42;;;22.20;50.40;;;;;;6271030;28;20047;-82
2023/05/18 12:18:01;;;;;;;11.52;3.55;;;22.10;50.40;;;;;;6267912;28;20045;-80
2023/05/18 12:21:04;;;;;;;5.00;2.25;;;22.40;50.70;;;;;;6268589;28;20040;-81
2023/05/18 12:24:07;;;;;;;4.78;2.28;;;22.70;50.70;;;;;;6271916;28;20047;-82
2023/05/18 12:27:11;;;;;;;5.03;2.03;;;23.20;50.10;;;;;;6268086;28;20387;-82
2023/05/18 12:30:17;;;;;;;5.35;2.28;;;23.30;49.30;;;;;;6267994;28;20047;-83
2023/05/18 12:33:21;;;;;;;10.27;3.53;;;23.40;49.10;;;;;;6270982;28;20049;-81
2023/05/18 12:36:23;;;;;;;4.28;1.95;;;23.50;49.00;;;;;;6267077;28;20053;-81
2023/05/18 12:39:25;;;;;;;6.07;2.22;;;23.40;49.60;;;;;;6267966;28;20095;-83
2023/05/18 12:42:28;;;;;;;10.15;2.85;;;23.30;48.90;;;;;;6267615;28;20048;-81
2023/05/18 12:45:32;;;;;;;5.97;2.70;;;23.40;48.90;;;;;;6274035;28;20044;-80
2023/05/18 12:48:36;;;;;;;8.77;2.10;;;23.70;48.30;;;;;;6277176;28;20064;-81
2023/05/18 12:51:39;;;;;;;7.18;2.33;;;23.40;47.60;;;;;;6279311;28;20041;-79
2023/05/18 12:54:58;;;;;;;11.43;2.35;;;23.10;47.70;;;;;;6274358;28;20052;-79
2023/05/18 12:58:03;;;;;;;7.00;2.13;;;22.90;48.00;;;;;;6276733;28;20057;-80
2023/05/18 13:01:09;;;;;;;5.57;2.25;;;23.10;48.70;;;;;;6271281;28;20546;-79
2023/05/18 13:04:11;;;;;;;7.18;3.00;;;23.30;47.50;;;;;;6271898;28;20049;-80
2023/05/18 13:07:13;;;;;;;11.13;2.55;;;22.80;47.50;;;;;;6271717;28;20037;-80
2023/05/18 13:10:18;;;;;;;8.63;3.72;;;22.70;48.20;;;;;;6269969;28;20056;-84
2023/05/18 13:13:21;;;;;;;7.30;2.70;;;22.70;47.70;;;;;;6282615;28;20056;-83
2023/05/18 13:16:23;;;;;;;9.50;3.38;;;22.80;47.80;;;;;;6274882;28;20060;-81
2023/05/18 13:19:26;;;;;;;9.48;2.15;;;23.10;47.70;;;;;;6269464;28;20450;-81
2023/05/18 13:22:28;;;;;;;9.85;2.35;;;23.10;47.10;;;;;;6270159;28;20048;-82
2023/05/18 13:25:29;;;;;;;7.22;2.22;;;23.00;47.60;;;;;;6271075;28;20051;-86
2023/05/18 13:28:32;;;;;;;9.60;2.40;;;23.40;47.50;;;;;;6267467;28;20156;-81
2023/05/18 13:31:34;;;;;;;7.88;2.83;;;23.70;47.20;;;;;;6271801;28;20423;-86
2023/05/18 13:34:36;;;;;;;8.48;2.60;;;23.60;47.00;;;;;;6270576;28;20037;-79
2023/05/18 13:37:38;;;;;;;9.23;3.33;;;23.70;47.40;;;;;;6269269;28;20055;-79
2023/05/18 13:40:40;;;;;;;9.95;3.95;;;24.00;47.00;;;;;;6272011;28;20045;-80
2023/05/18 13:43:43;;;;;;;6.75;2.10;;;24.40;46.20;;;;;;6267142;28;20053;-80
2023/05/18 13:46:45;;;;;;;6.13;2.35;;;24.10;45.70;;;;;;6270171;28;20048;-80
2023/05/18 13:49:47;;;;;;;6.53;2.17;;;23.70;46.40;;;;;;6268153;28;20061;-82
2023/05/18 13:52:49;;;;;;;11.45;2.42;;;23.70;46.00;;;;;;6273556;28;20056;-78
2023/05/18 13:55:51;;;;;;;7.13;2.63;;;23.60;46.10;;;;;;6268777;28;20064;-80
2023/05/18 13:58:54;;;;;;;7.03;2.50;;;23.60;45.80;;;;;;6268667;28;20041;-81
2023/05/18 14:01:56;;;;;;;4.22;2.35;;;23.80;46.10;;;;;;6270980;28;20045;-82
2023/05/18 14:04:58;;;;;;;4.95;2.05;;;24.30;46.20;;;;;;6271882;28;20038;-82
2023/05/18 14:08:00;;;;;;;3.53;2.00;;;24.80;45.30;;;;;;6273747;28;20049;-85
2023/05/18 14:11:02;;;;;;;7.88;2.28;;;24.70;44.80;;;;;;6274664;28;20041;-82
2023/05/18 14:14:05;;;;;;;6.85;2.40;;;23.90;44.50;;;;;;6276039;28;20052;-81
2023/05/18 14:17:07;;;;;;;8.90;2.90;;;23.50;45.30;;;;;;6277474;28;20076;-82
2023/05/18 14:20:10;;;;;;;5.53;3.20;;;23.60;45.30;;;;;;6274302;28;20388;-83
2023/05/18 14:23:11;;;;;;;4.05;2.22;;;23.60;44.80;;;;;;6278687;28;20044;-84
2023/05/18 14:26:13;;;;;;;4.55;2.08;;;23.10;44.60;;;;;;6271184;28;20040;-81
2023/05/18 14:29:16;;;;;;;7.07;2.45;;;22.80;45.40;;;;;;6272652;28;20072;-80
2023/05/18 14:32:19;;;;;;;7.07;2.92;;;22.90;46.00;;;;;;6275081;28;20044;-82
2023/05/18 14:35:21;;;;;;;7.53;2.13;;;23.50;45.30;;;;;;6273351;28;20410;-83
2023/05/18 14:38:25;;;;;;;9.27;2.60;;;23.60;44.80;;;;;;6271301;28;20055;-83
2023/05/18 14:41:27;;;;;;;5.75;2.35;;;23.40;44.70;;;;;;6271108;28;20068;-83
2023/05/18 14:44:30;;;;;;;5.63;1.90;;;23.00;45.10;;;;;;6273501;28;20107;-86
2023/05/18 14:47:32;;;;;;;5.63;2.25;;;23.10;45.10;;;;;;6278681;28;20131;-80
2023/05/18 14:50:34;;;;;;;10.23;2.53;;;23.10;45.20;;;;;;6277587;28;20127;-82
2023/05/18 14:57:46;;;;;;;9.00;2.53;;;23.70;44.60;;;;;;6278314;28;20052;-82
2023/05/18 15:00:49;;;;;;;4.20;2.72;;;23.60;44.70;;;;;;6275489;28;20313;-82
2023/05/18 15:03:51;;;;;;;7.45;2.67;;;23.50;44.70;;;;;;6283174;28;20116;-83
2023/05/18 15:06:53;;;;;;;10.38;2.53;;;23.40;44.80;;;;;;6281295;28;20098;-84
2023/05/18 15:09:55;;;;;;;6.40;2.17;;;23.50;44.80;;;;;;6281270;28;20053;-82
2023/05/18 15:12:56;;;;;;;14.10;3.17;;;23.50;45.20;;;;;;6280652;28;20108;-82
2023/05/18 15:16:00;;;;;;;5.13;1.98;;;23.50;45.20;;;;;;6279999;28;20049;-82
2023/05/18 15:19:03;;;;;;;8.13;2.20;;;23.60;44.90;;;;;;6280325;28;20106;-83
2023/05/18 15:22:05;;;;;;;8.02;2.28;;;23.60;44.90;;;;;;6272745;28;20046;-83
2023/05/18 15:25:08;;;;;;;6.40;2.08;;;23.60;44.80;;;;;;6273471;28;20056;-82
2023/05/18 15:28:10;;;;;;;6.25;2.55;;;23.40;44.60;;;;;;6273239;28;20048;-82
2023/05/18 15:31:13;;;;;;;8.13;2.88;;;23.50;44.90;;;;;;6275985;28;20041;-82
2023/05/18 15:34:15;;;;;;;7.43;3.90;;;23.50;44.40;;;;;;6279991;28;20051;-82
2023/05/18 15:37:18;;;;;;;5.15;2.20;;;23.40;44.50;;;;;;6276888;28;20141;-82
2023/05/18 15:40:20;;;;;;;7.10;3.00;;;23.20;44.70;;;;;;6275549;28;20041;-82
2023/05/18 15:43:25;;;;;;;4.35;2.30;;;23.20;45.60;;;;;;6279015;28;20052;-82
2023/05/18 15:46:30;;;;;;;6.30;2.28;;;23.30;44.50;;;;;;6279553;28;20045;-83
2023/05/18 15:49:31;;;;;;;6.75;2.13;;;23.50;44.30;;;;;;6278532;28;20098;-83
2023/05/18 15:52:33;;;;;;;9.38;3.22;;;23.70;44.10;;;;;;6276919;28;20041;-82
2023/05/18 15:55:35;;;;;;;8.60;2.22;;;23.60;44.40;;;;;;6275455;28;20140;-81
2023/05/18 15:58:37;;;;;;;4.75;2.15;;;23.20;44.30;;;;;;6277839;28;20051;-81
2023/05/18 16:01:40;;;;;;;8.48;2.45;;;22.80;44.90;;;;;;6279469;28;20041;-83
2023/05/18 16:04:41;;;;;;;7.90;2.38;;;22.80;45.30;;;;;;6280893;28;20064;-82
2023/05/18 16:07:44;;;;;;;5.68;2.13;;;22.80;45.00;;;;;;6274668;28;20052;-81
2023/05/18 16:10:46;;;;;;;7.32;2.53;;;22.60;44.90;;;;;;6269809;28;20049;-80